createdAt,value
2022-12-22T00:01:55.967Z,96471.09
2022-12-22T00:04:41.640Z,96465.19
2022-12-22T00:07:27.455Z,96455.97
2022-12-22T00:10:12.775Z,96462.63
2022-12-22T00:12:57.966Z,96446.91
2022-12-22T00:15:43.426Z,96456.34
2022-12-22T00:18:34.334Z,96452.16
2022-12-22T00:21:19.063Z,96432.88
2022-12-22T00:24:03.792Z,96445.63
2022-12-22T00:26:51.176Z,96454.47
2022-12-22T00:29:36.589Z,96453.31
2022-12-22T00:32:24.335Z,96447.47
2022-12-22T00:35:10.131Z,96446.53
2022-12-22T00:37:56.427Z,96439.91
2022-12-22T00:40:45.493Z,96430.63
2022-12-22T00:43:31.260Z,96426.50
2022-12-22T00:46:18.008Z,96419.50
2022-12-22T00:49:03.094Z,96425.47
2022-12-22T00:51:49.943Z,96429.38
2022-12-22T00:54:35.766Z,96436.31
2022-12-22T00:57:21.612Z,96433.72
2022-12-22T01:00:08.834Z,96422.72
2022-12-22T01:02:53.695Z,96425.25
2022-12-22T01:05:38.836Z,96416.13
2022-12-22T01:08:24.100Z,96411.06
2022-12-22T01:11:08.919Z,96406.97
2022-12-22T01:13:53.793Z,96400.25
2022-12-22T01:16:38.972Z,96396.97
2022-12-22T01:19:23.750Z,96397.09
2022-12-22T01:22:09.164Z,96402.22
2022-12-22T01:24:54.007Z,96392.41
2022-12-22T01:27:38.770Z,96383.03
2022-12-22T01:30:24.035Z,96392.28
2022-12-22T01:33:08.888Z,96393.13
2022-12-22T01:35:53.807Z,96398.97
2022-12-22T01:38:38.576Z,96401.41
2022-12-22T01:41:24.472Z,96392.84
2022-12-22T01:44:09.185Z,96394.59
2022-12-22T01:47:00.333Z,96382.69
2022-12-22T01:49:54.617Z,96376.03
2022-12-22T01:52:44.273Z,96373.44
2022-12-22T01:55:33.516Z,96368.31
2022-12-22T01:58:18.334Z,96363.16
2022-12-22T02:01:05.216Z,96358.16
2022-12-22T02:03:50.421Z,96348.13
2022-12-22T02:06:57.957Z,96345.69
2022-12-22T02:10:06.998Z,96346.50
2022-12-22T02:13:09.158Z,96342.31
2022-12-22T02:16:04.802Z,96345.84
2022-12-22T02:18:58.761Z,96338.41
2022-12-22T02:21:44.667Z,96344.19
2022-12-22T02:25:00.103Z,96342.59
2022-12-22T02:27:46.838Z,96343.31
2022-12-22T02:30:31.997Z,96336.78
2022-12-22T02:33:17.232Z,96343.53
2022-12-22T02:36:22.925Z,96334.22
2022-12-22T02:39:20.832Z,96335.03
2022-12-22T02:42:12.687Z,96337.53
2022-12-22T02:45:17.236Z,96339.34
2022-12-22T02:48:10.677Z,96332.50
2022-12-22T02:51:04.653Z,96335.88
2022-12-22T02:53:50.079Z,96329.97
2022-12-22T02:56:35.945Z,96329.91
2022-12-22T02:59:21.043Z,96333.34
2022-12-22T03:02:06.575Z,96334.91
2022-12-22T03:04:51.593Z,96332.53
2022-12-22T03:07:36.929Z,96329.91
2022-12-22T03:10:22.200Z,96328.25
2022-12-22T03:13:06.995Z,96326.66
2022-12-22T03:15:51.936Z,96322.44
2022-12-22T03:18:36.877Z,96324.81
2022-12-22T03:21:22.289Z,96318.16
2022-12-22T03:24:07.105Z,96310.66
2022-12-22T03:26:33.564Z,96297.97
2022-12-22T03:29:00.001Z,96292.13
2022-12-22T03:31:26.568Z,96280.38
2022-12-22T03:33:52.980Z,96284.56
2022-12-22T03:36:19.374Z,96284.56
2022-12-22T03:38:45.789Z,96280.31
2022-12-22T03:41:32.172Z,96285.63
2022-12-22T03:44:17.329Z,96278.00
2022-12-22T03:46:43.781Z,96280.41
2022-12-22T03:49:10.252Z,96277.06
2022-12-22T03:51:45.767Z,96274.41
2022-12-22T03:54:15.375Z,96270.28
2022-12-22T03:56:42.583Z,96269.56
2022-12-22T03:59:09.455Z,96268.75
2022-12-22T04:01:41.864Z,96262.06
2022-12-22T04:04:09.024Z,96257.88
2022-12-22T04:06:35.609Z,96256.16
2022-12-22T04:09:02.061Z,96260.38
2022-12-22T04:11:47.129Z,96257.94
2022-12-22T04:14:13.481Z,96257.03
2022-12-22T04:16:39.865Z,96261.34
2022-12-22T04:19:09.986Z,96248.78
2022-12-22T04:21:37.085Z,96248.59
2022-12-22T04:24:03.827Z,96251.25
2022-12-22T04:26:30.248Z,96247.00
2022-12-22T04:28:56.740Z,96247.78
2022-12-22T04:31:23.564Z,96248.56
2022-12-22T04:33:49.994Z,96248.59
2022-12-22T04:36:16.861Z,96250.47
2022-12-22T04:38:43.521Z,96239.53
2022-12-22T04:41:10.157Z,96246.25
2022-12-22T04:43:37.143Z,96232.78
2022-12-22T04:46:03.912Z,96239.47
2022-12-22T04:48:30.877Z,96236.91
2022-12-22T04:50:59.583Z,96233.78
2022-12-22T04:53:28.070Z,96221.69
2022-12-22T04:55:57.677Z,96221.88
2022-12-22T04:58:24.215Z,96213.34
2022-12-22T05:00:50.610Z,96216.19
2022-12-22T05:03:18.051Z,96213.59
2022-12-22T05:05:44.629Z,96201.81
2022-12-22T05:08:11.015Z,96199.34
2022-12-22T05:10:37.398Z,96209.41
2022-12-22T05:13:05.863Z,96202.63
2022-12-22T05:15:33.655Z,96199.31
2022-12-22T05:18:01.173Z,96215.38
2022-12-22T05:20:28.512Z,96210.25
2022-12-22T05:22:55.251Z,96217.97
2022-12-22T05:25:22.011Z,96207.00
2022-12-22T05:27:50.297Z,96208.78
2022-12-22T05:30:18.220Z,96196.97
2022-12-22T05:32:44.729Z,96197.78
2022-12-22T05:35:11.998Z,96193.72
2022-12-22T05:37:38.392Z,96190.19
2022-12-22T05:40:06.072Z,96187.72
2022-12-22T05:42:38.251Z,96194.47
2022-12-22T05:45:06.205Z,96180.22
2022-12-22T05:47:32.951Z,96193.72
2022-12-22T05:49:59.425Z,96194.56
2022-12-22T05:52:25.890Z,96180.22
2022-12-22T05:54:52.375Z,96171.00
2022-12-22T05:57:18.832Z,96166.88
2022-12-22T05:59:45.213Z,96176.91
2022-12-22T06:02:12.906Z,96174.38
2022-12-22T06:04:39.443Z,96172.59
2022-12-22T06:07:05.877Z,96177.63
2022-12-22T06:09:32.538Z,96180.91
2022-12-22T06:11:58.878Z,96167.47
2022-12-22T06:14:25.343Z,96172.47
2022-12-22T06:16:51.672Z,96181.91
2022-12-22T06:19:18.136Z,96166.69
2022-12-22T06:21:44.514Z,96167.44
2022-12-22T06:24:10.873Z,96170.06
2022-12-22T06:26:37.212Z,96158.31
2022-12-22T06:29:04.021Z,96167.53
2022-12-22T06:31:30.428Z,96165.81
2022-12-22T06:33:57.482Z,96156.59
2022-12-22T06:36:23.900Z,96147.28
2022-12-22T06:38:50.344Z,96156.59
2022-12-22T06:41:36.695Z,96165.81
2022-12-22T06:44:03.107Z,96166.75
2022-12-22T06:46:29.613Z,96164.19
2022-12-22T06:48:56.016Z,96169.41
2022-12-22T06:51:22.366Z,96175.44
2022-12-22T06:53:48.796Z,96172.78
2022-12-22T06:56:15.160Z,96169.38
2022-12-22T06:58:41.605Z,96172.78
2022-12-22T07:01:08.014Z,96176.19
2022-12-22T07:03:34.405Z,96174.63
2022-12-22T07:06:00.809Z,96176.50
2022-12-22T07:08:27.219Z,96179.75
2022-12-22T07:10:59.574Z,96181.47
2022-12-22T07:13:29.545Z,96185.72
2022-12-22T07:16:00.648Z,96185.53
2022-12-22T07:18:29.960Z,96179.69
2022-12-22T07:20:56.443Z,96175.59
2022-12-22T07:23:23.099Z,96175.50
2022-12-22T07:25:49.476Z,96176.47
2022-12-22T07:28:20.650Z,96178.25
2022-12-22T07:30:49.384Z,96179.06
2022-12-22T07:33:16.161Z,96181.78
2022-12-22T07:35:42.551Z,96174.44
2022-12-22T07:38:09.444Z,96165.03
2022-12-22T07:40:41.320Z,96149.13
2022-12-22T07:43:08.533Z,96154.31
2022-12-22T07:45:34.975Z,96150.78
2022-12-22T07:48:02.376Z,96144.06
2022-12-22T07:50:28.838Z,96138.16
2022-12-22T07:53:05.168Z,96139.94
2022-12-22T07:55:35.984Z,96140.00
2022-12-22T07:58:02.480Z,96137.34
2022-12-22T08:00:28.819Z,96141.59
2022-12-22T08:02:56.918Z,96137.53
2022-12-22T08:05:25.024Z,96131.00
2022-12-22T08:07:52.641Z,96133.81
2022-12-22T08:10:20.242Z,96127.97
2022-12-22T08:12:46.978Z,96139.72
2022-12-22T08:15:13.468Z,96143.06
2022-12-22T08:17:39.925Z,96132.09
2022-12-22T08:20:06.760Z,96136.41
2022-12-22T08:22:33.188Z,96130.66
2022-12-22T08:24:59.561Z,96130.88
2022-12-22T08:27:31.495Z,96129.31
2022-12-22T08:30:00.686Z,96122.53
2022-12-22T08:32:27.541Z,96126.56
2022-12-22T08:34:54.191Z,96124.84
2022-12-22T08:37:25.025Z,96119.63
2022-12-22T08:39:57.589Z,96129.72
2022-12-22T08:42:25.379Z,96121.41
2022-12-22T08:44:54.766Z,96125.75
2022-12-22T08:47:21.808Z,96124.22
2022-12-22T08:49:49.286Z,96131.03
2022-12-22T08:52:18.809Z,96137.06
2022-12-22T08:54:47.810Z,96129.53
2022-12-22T08:57:14.180Z,96128.91
2022-12-22T08:59:40.564Z,96135.84
2022-12-22T09:02:07.180Z,96130.94
2022-12-22T09:04:34.066Z,96122.63
2022-12-22T09:07:02.435Z,96132.97
2022-12-22T09:09:32.729Z,96119.56
2022-12-22T09:11:59.729Z,96113.00
2022-12-22T09:14:28.784Z,96121.50
2022-12-22T09:16:55.216Z,96111.66
2022-12-22T09:19:22.760Z,96128.72
2022-12-22T09:21:49.359Z,96126.25
2022-12-22T09:24:15.951Z,96117.84
2022-12-22T09:26:42.989Z,96114.59
2022-12-22T09:29:10.894Z,96112.44
2022-12-22T09:31:37.493Z,96114.41
2022-12-22T09:34:05.099Z,96107.03
2022-12-22T09:36:32.101Z,96114.97
2022-12-22T09:39:05.187Z,96106.69
2022-12-22T09:41:46.771Z,96108.44
2022-12-22T09:44:20.907Z,96105.13
2022-12-22T09:46:47.585Z,96098.50
2022-12-22T09:49:16.117Z,96089.16
2022-12-22T09:51:47.974Z,96096.03
2022-12-22T09:54:15.956Z,96089.44
2022-12-22T09:56:42.396Z,96084.53
2022-12-22T09:59:11.862Z,96088.00
2022-12-22T10:02:03.881Z,96094.84
2022-12-22T10:04:55.339Z,96085.63
2022-12-22T10:07:36.133Z,96078.94
2022-12-22T10:10:24.720Z,96083.19
2022-12-22T10:12:54.423Z,96089.13
2022-12-22T10:15:22.213Z,96086.63
2022-12-22T10:17:53.874Z,96081.66
2022-12-22T10:20:27.547Z,96081.72
2022-12-22T10:23:27.985Z,96085.25
2022-12-22T10:28:46.705Z,96069.59
2022-12-22T10:31:31.174Z,96069.00
2022-12-22T10:34:14.213Z,96072.78
2022-12-22T10:36:46.398Z,96075.72
2022-12-22T10:39:24.411Z,96067.78
2022-12-22T10:41:55.070Z,96056.25
2022-12-22T10:44:26.089Z,96063.38
2022-12-22T10:46:55.617Z,96061.91
2022-12-22T10:49:23.671Z,96052.69
2022-12-22T10:52:13.187Z,96056.16
2022-12-22T10:54:44.591Z,96053.63
2022-12-22T10:57:13.706Z,96051.16
2022-12-22T10:59:55.328Z,96058.88
2022-12-22T11:02:22.563Z,96052.06
2022-12-22T11:04:50.220Z,96050.50
2022-12-22T11:07:16.674Z,96042.81
2022-12-22T11:09:43.306Z,96027.59
2022-12-22T11:12:30.930Z,96031.09
2022-12-22T11:15:00.364Z,96032.84
2022-12-22T11:17:39.187Z,96019.28
2022-12-22T11:20:40.763Z,96021.03
2022-12-22T11:23:16.246Z,96020.19
2022-12-22T11:25:57.778Z,96022.75
2022-12-22T11:28:39.514Z,96006.63
2022-12-22T11:31:35.611Z,96019.41
2022-12-22T11:34:21.829Z,96010.03
2022-12-22T11:37:25.436Z,96012.59
2022-12-22T11:40:03.238Z,96009.19
2022-12-22T11:42:56.449Z,96004.06
2022-12-22T11:45:43.108Z,96006.63
2022-12-22T11:48:31.944Z,96004.09
2022-12-22T11:51:16.568Z,96007.50
2022-12-22T11:53:54.046Z,96008.34
2022-12-22T11:56:32.615Z,96009.22
2022-12-22T11:59:02.063Z,96012.63
2022-12-22T12:01:56.256Z,96002.41
2022-12-22T12:04:40.890Z,96003.28
2022-12-22T12:07:25.388Z,95997.31
2022-12-22T12:10:17.385Z,95996.47
2022-12-22T12:12:48.575Z,96002.44
2022-12-22T12:15:14.822Z,96002.41
2022-12-22T12:17:51.113Z,95997.31
2022-12-22T12:20:32.305Z,95998.16
2022-12-22T12:23:04.738Z,96009.22
2022-12-22T12:25:40.610Z,96003.25
2022-12-22T12:28:23.302Z,95997.31
2022-12-22T12:30:57.719Z,95990.50
2022-12-22T12:33:42.477Z,95994.75
2022-12-22T12:36:16.121Z,95989.63
2022-12-22T12:39:10.601Z,95978.56
2022-12-22T12:41:45.621Z,95989.66
2022-12-22T12:44:15.831Z,95990.47
2022-12-22T12:46:51.347Z,95976.88
2022-12-22T12:49:36.051Z,95986.22
2022-12-22T12:52:04.760Z,95989.63
2022-12-22T12:54:42.604Z,95983.66
2022-12-22T12:57:28.806Z,95988.78
2022-12-22T12:59:57.888Z,95987.91
2022-12-22T13:02:27.197Z,95992.16
2022-12-22T13:05:11.519Z,95992.13
2022-12-22T13:08:08.999Z,95987.91
2022-12-22T13:10:54.003Z,95986.22
2022-12-22T13:13:23.481Z,95986.19
2022-12-22T13:16:15.958Z,95977.69
2022-12-22T13:18:49.526Z,95998.09
2022-12-22T13:24:26.512Z,95993.88
2022-12-22T13:26:55.792Z,95995.56
2022-12-22T13:29:22.202Z,95993.88
2022-12-22T13:31:53.872Z,95995.56
2022-12-22T13:34:57.602Z,95999.81
2022-12-22T13:37:28.962Z,95993.00
2022-12-22T13:40:05.373Z,95993.88
2022-12-22T13:42:36.006Z,96000.69
2022-12-22T13:45:02.545Z,96004.91
2022-12-22T13:47:29.129Z,96004.06
2022-12-22T13:50:11.449Z,96005.75
2022-12-22T13:52:40.435Z,96007.44
2022-12-22T13:55:13.817Z,96008.28
2022-12-22T13:57:40.361Z,96002.34
2022-12-22T14:00:18.702Z,96008.28
2022-12-22T14:02:45.328Z,96005.72
2022-12-22T14:05:13.988Z,96008.31
2022-12-22T14:07:40.523Z,96009.13
2022-12-22T14:10:07.790Z,96015.91
2022-12-22T14:12:41.786Z,96015.06
2022-12-22T14:15:15.743Z,96023.56
2022-12-22T14:17:46.186Z,96018.47
2022-12-22T14:20:29.445Z,96024.41
2022-12-22T14:23:05.828Z,96022.75
2022-12-22T14:25:35.707Z,96020.19
2022-12-22T14:28:05.393Z,96023.59
2022-12-22T14:30:39.040Z,96021.88
2022-12-22T14:33:32.982Z,96021.03
2022-12-22T14:36:25.129Z,96024.44
2022-12-22T14:38:57.104Z,96032.94
2022-12-22T14:41:43.248Z,96042.28
2022-12-22T14:44:48.598Z,96042.28
2022-12-22T14:47:18.479Z,96046.56
2022-12-22T14:49:51.771Z,96049.94
2022-12-22T14:52:44.086Z,96059.31
2022-12-22T14:55:28.410Z,96064.41
2022-12-22T14:58:03.937Z,96063.56
2022-12-22T15:00:44.953Z,96072.94
2022-12-22T15:03:33.776Z,96064.44
2022-12-22T15:06:24.192Z,96071.22
2022-12-22T15:08:54.813Z,96072.94
2022-12-22T15:11:23.643Z,96062.72
2022-12-22T15:13:51.547Z,96064.47
2022-12-22T15:16:20.164Z,96076.38
2022-12-22T15:18:47.813Z,96073.78
2022-12-22T15:21:16.605Z,96079.75
2022-12-22T15:23:43.889Z,96077.22
2022-12-22T15:26:10.603Z,96081.44
2022-12-22T15:28:37.316Z,96088.25
2022-12-22T15:31:06.732Z,96095.09
2022-12-22T15:33:33.162Z,96100.19
2022-12-22T15:36:01.033Z,96101.91
2022-12-22T15:38:29.182Z,96106.16
2022-12-22T15:40:57.431Z,96101.91
2022-12-22T15:46:16.060Z,96103.56
2022-12-22T15:48:43.341Z,96110.41
2022-12-22T15:51:27.817Z,96111.28
2022-12-22T15:53:55.582Z,96125.69
2022-12-22T15:56:25.500Z,96118.88
2022-12-22T15:58:53.625Z,96120.63
2022-12-22T16:01:20.118Z,96119.75
2022-12-22T16:03:46.609Z,96139.34
2022-12-22T16:06:15.954Z,96137.66
2022-12-22T16:08:49.267Z,96144.44
2022-12-22T16:11:16.192Z,96151.19
2022-12-22T16:13:42.835Z,96143.59
2022-12-22T16:16:09.290Z,96137.63
2022-12-22T16:18:35.719Z,96141.03
2022-12-22T16:21:11.693Z,96141.91
2022-12-22T16:23:39.849Z,96137.63
2022-12-22T16:26:06.282Z,96152.06
2022-12-22T16:28:33.184Z,96146.94
2022-12-22T16:31:00.579Z,96150.38
2022-12-22T16:33:27.067Z,96147.81
2022-12-22T16:35:53.612Z,96152.09
2022-12-22T16:38:20.361Z,96158.03
2022-12-22T16:40:50.495Z,96154.66
2022-12-22T16:46:17.116Z,96158.88
2022-12-22T16:48:59.768Z,96162.31
2022-12-22T16:51:33.697Z,96177.59
2022-12-22T16:54:01.354Z,96171.66
2022-12-22T16:56:30.254Z,96178.47
2022-12-22T16:58:57.457Z,96189.53
2022-12-22T17:01:34.813Z,96187.78
2022-12-22T17:04:06.898Z,96200.56
2022-12-22T17:06:34.205Z,96203.16
2022-12-22T17:09:02.971Z,96208.25
2022-12-22T17:11:31.522Z,96208.25
2022-12-22T17:14:16.591Z,96203.97
2022-12-22T17:16:42.994Z,96195.41
2022-12-22T17:19:11.000Z,96206.47
2022-12-22T17:21:37.587Z,96203.97
2022-12-22T17:24:04.658Z,96204.78
2022-12-22T17:26:33.500Z,96200.56
2022-12-22T17:29:00.245Z,96205.66
2022-12-22T17:31:26.754Z,96210.75
2022-12-22T17:33:53.245Z,96203.91
2022-12-22T17:36:33.092Z,96197.13
2022-12-22T17:39:00.584Z,96208.19
2022-12-22T17:41:28.390Z,96201.38
2022-12-22T17:43:54.819Z,96208.22
2022-12-22T17:46:21.837Z,96200.47
2022-12-22T17:48:49.246Z,96208.16
2022-12-22T17:51:22.658Z,96204.75
2022-12-22T17:53:49.196Z,96197.13
2022-12-22T17:56:21.194Z,96200.50
2022-12-22T17:58:48.431Z,96197.13
2022-12-22T18:01:23.790Z,96200.53
2022-12-22T18:03:50.660Z,96209.06
2022-12-22T18:06:19.495Z,96200.53
2022-12-22T18:08:46.457Z,96205.63
2022-12-22T18:11:13.533Z,96202.25
2022-12-22T18:13:40.802Z,96203.91
2022-12-22T18:16:10.801Z,96209.88
2022-12-22T18:18:37.428Z,96205.63
2022-12-22T18:21:07.310Z,96199.69
2022-12-22T18:23:36.780Z,96209.06
2022-12-22T18:26:05.836Z,96204.78
2022-12-22T18:28:32.224Z,96209.88
2022-12-22T18:30:58.592Z,96206.47
2022-12-22T18:33:24.996Z,96198.00
2022-12-22T18:35:51.380Z,96197.13
2022-12-22T18:38:33.035Z,96207.34
2022-12-22T18:40:59.639Z,96197.97
2022-12-22T18:43:26.365Z,96206.47
2022-12-22T18:45:52.726Z,96199.66
2022-12-22T18:48:19.094Z,96203.91
2022-12-22T18:50:45.566Z,96207.31
2022-12-22T18:53:31.312Z,96209.00
2022-12-22T18:55:58.719Z,96200.47
2022-12-22T18:58:25.969Z,96198.78
2022-12-22T19:00:55.009Z,96203.00
2022-12-22T19:03:29.342Z,96191.97
2022-12-22T19:05:56.869Z,96195.38
2022-12-22T19:08:26.959Z,96199.59
2022-12-22T19:10:56.382Z,96200.44
2022-12-22T19:13:28.398Z,96197.91
2022-12-22T19:15:55.691Z,96197.88
2022-12-22T19:18:27.126Z,96191.91
2022-12-22T19:20:54.395Z,96190.97
2022-12-22T19:23:23.754Z,96196.09
2022-12-22T19:25:54.062Z,96196.91
2022-12-22T19:28:42.589Z,96191.84
2022-12-22T19:31:20.546Z,96186.75
2022-12-22T19:33:47.531Z,96182.47
2022-12-22T19:36:21.644Z,96178.22
2022-12-22T19:38:50.742Z,96171.41
2022-12-22T19:41:30.037Z,96165.44
2022-12-22T19:43:56.623Z,96159.47
2022-12-22T19:46:26.600Z,96165.41
2022-12-22T19:48:54.285Z,96160.34
2022-12-22T19:51:20.657Z,96159.47
2022-12-22T19:53:48.433Z,96159.44
2022-12-22T19:56:29.637Z,96156.88
2022-12-22T19:58:57.449Z,96159.44
2022-12-22T20:01:26.009Z,96163.66
2022-12-22T20:03:52.656Z,96160.25
2022-12-22T20:06:25.379Z,96156.03
2022-12-22T20:08:54.269Z,96156.88
2022-12-22T20:11:20.817Z,96155.16
2022-12-22T20:13:47.992Z,96150.09
2022-12-22T20:16:16.725Z,96141.59
2022-12-22T20:18:46.206Z,96128.78
2022-12-22T20:21:16.424Z,96136.41
2022-12-22T20:23:43.446Z,96134.69
2022-12-22T20:26:16.194Z,96129.59
2022-12-22T20:28:42.875Z,96131.31
2022-12-22T20:31:13.274Z,96122.00
2022-12-22T20:33:42.018Z,96115.16
2022-12-22T20:36:23.191Z,96112.63
2022-12-22T20:38:52.377Z,96116.84
2022-12-22T20:41:19.360Z,96112.59
2022-12-22T20:43:45.823Z,96093.91
2022-12-22T20:46:14.304Z,96110.03
2022-12-22T20:48:44.367Z,96114.25
2022-12-22T20:51:17.401Z,96109.97
2022-12-22T20:53:46.159Z,96100.56
2022-12-22T20:56:26.828Z,96106.47
2022-12-22T20:58:54.004Z,96110.72
2022-12-22T21:01:22.836Z,96115.81
2022-12-22T21:03:49.864Z,96120.84
2022-12-22T21:06:44.498Z,96124.19
2022-12-22T21:09:12.407Z,96120.81
2022-12-22T21:11:38.941Z,96117.38
2022-12-22T21:14:05.347Z,96113.88
2022-12-22T21:16:33.986Z,96116.47
2022-12-22T21:19:01.792Z,96110.56
2022-12-22T21:21:28.218Z,96108.00
2022-12-22T21:23:54.579Z,96099.53
2022-12-22T21:26:26.851Z,96096.06
2022-12-22T21:28:53.503Z,96093.53
2022-12-22T21:31:20.100Z,96094.38
2022-12-22T21:33:47.124Z,96097.75
2022-12-22T21:36:24.100Z,96094.34
2022-12-22T21:39:01.596Z,96090.09
2022-12-22T21:41:46.652Z,96085.81
2022-12-22T21:44:13.324Z,96089.16
2022-12-22T21:46:46.898Z,96095.91
2022-12-22T21:49:25.310Z,96084.91
2022-12-22T21:51:53.473Z,96089.13
2022-12-22T21:54:21.351Z,96079.78
2022-12-22T21:56:48.924Z,96081.47
2022-12-22T21:59:16.101Z,96081.50
2022-12-22T22:01:44.813Z,96074.63
2022-12-22T22:04:11.784Z,96078.06
2022-12-22T22:06:38.117Z,96067.97
2022-12-22T22:09:05.148Z,96068.75
2022-12-22T22:11:32.053Z,96068.75
2022-12-22T22:13:59.087Z,96058.59
2022-12-22T22:16:25.532Z,96061.09
2022-12-22T22:18:51.952Z,96064.50
2022-12-22T22:21:18.340Z,96055.97
2022-12-22T22:23:44.707Z,96054.25
2022-12-22T22:26:11.323Z,96052.53
2022-12-22T22:28:38.025Z,96053.38
2022-12-22T22:31:11.328Z,96046.56
2022-12-22T22:33:38.027Z,96042.31
2022-12-22T22:36:07.176Z,96034.69
2022-12-22T22:38:35.814Z,96035.59
2022-12-22T22:41:02.465Z,96023.75
2022-12-22T22:43:28.842Z,96032.22
2022-12-22T22:45:55.308Z,96020.28
2022-12-22T22:48:22.880Z,96021.16
2022-12-22T22:50:50.136Z,96012.72
2022-12-22T22:53:16.536Z,96006.81
2022-12-22T22:55:43.001Z,96001.66
2022-12-22T22:58:11.379Z,96004.22
2022-12-22T23:00:39.021Z,95994.91
2022-12-22T23:03:05.778Z,95992.31
2022-12-22T23:05:32.217Z,95994.88
2022-12-22T23:07:58.635Z,96000.75
2022-12-22T23:10:25.117Z,95997.34
2022-12-22T23:12:51.596Z,95986.31
2022-12-22T23:15:18.121Z,95984.63
2022-12-22T23:17:44.577Z,95972.75
2022-12-22T23:20:11.091Z,95978.69
2022-12-22T23:22:37.453Z,95976.09
2022-12-22T23:25:03.983Z,95976.91
2022-12-22T23:27:31.430Z,95964.19
2022-12-22T23:29:57.879Z,95965.03
2022-12-22T23:32:24.803Z,95959.94
2022-12-22T23:34:51.173Z,95953.13
2022-12-22T23:37:19.656Z,95954.84
2022-12-22T23:39:46.663Z,95949.72
2022-12-22T23:42:13.145Z,95953.91
2022-12-22T23:44:39.517Z,95945.41
2022-12-22T23:47:05.953Z,95945.44
2022-12-22T23:49:32.427Z,95942.00
2022-12-22T23:51:58.777Z,95941.97
2022-12-22T23:54:25.221Z,95934.34
2022-12-22T23:56:52.667Z,95939.44
2022-12-22T23:59:19.236Z,95929.25
